sensor_id;sensor_type;location;lat;lon;timestamp;P1;durP1;ratioP1;P2;durP2;ratioP2
8887;SDS011;4480;52.370;9.748;2023-04-09T00:01:55;98.82;;;29.73;;
8887;SDS011;4480;52.370;9.748;2023-04-09T00:04:22;90.68;;;29.50;;
8887;SDS011;4480;52.370;9.748;2023-04-09T00:06:49;93.00;;;28.38;;
8887;SDS011;4480;52.370;9.748;2023-04-09T00:09:16;62.00;;;25.73;;
8887;SDS011;4480;52.370;9.748;2023-04-09T00:11:43;68.93;;;26.23;;
8887;SDS011;4480;52.370;9.748;2023-04-09T00:14:09;64.93;;;28.27;;
8887;SDS011;4480;52.370;9.748;2023-04-09T00:16:36;53.53;;;27.63;;
8887;SDS011;4480;52.370;9.748;2023-04-09T00:19:05;60.90;;;27.60;;
8887;SDS011;4480;52.370;9.748;2023-04-09T00:21:32;54.22;;;25.52;;
8887;SDS011;4480;52.370;9.748;2023-04-09T00:23:59;48.63;;;24.67;;
8887;SDS011;4480;52.370;9.748;2023-04-09T00:26:26;51.47;;;26.73;;
8887;SDS011;4480;52.370;9.748;2023-04-09T00:28:52;64.68;;;26.90;;
8887;SDS011;4480;52.370;9.748;2023-04-09T00:31:19;37.15;;;24.45;;
8887;SDS011;4480;52.370;9.748;2023-04-09T00:33:46;47.47;;;25.95;;
8887;SDS011;4480;52.370;9.748;2023-04-09T00:36:14;42.10;;;24.65;;
8887;SDS011;4480;52.370;9.748;2023-04-09T00:38:41;69.60;;;27.55;;
8887;SDS011;4480;52.370;9.748;2023-04-09T00:41:08;39.05;;;24.25;;
8887;SDS011;4480;52.370;9.748;2023-04-09T00:43:35;40.15;;;24.15;;
8887;SDS011;4480;52.370;9.748;2023-04-09T00:46:02;45.15;;;23.40;;
8887;SDS011;4480;52.370;9.748;2023-04-09T00:48:30;60.97;;;24.52;;
8887;SDS011;4480;52.370;9.748;2023-04-09T00:50:57;44.58;;;25.20;;
8887;SDS011;4480;52.370;9.748;2023-04-09T00:53:25;36.75;;;24.48;;
8887;SDS011;4480;52.370;9.748;2023-04-09T00:55:52;38.65;;;24.65;;
8887;SDS011;4480;52.370;9.748;2023-04-09T00:58:20;34.90;;;23.25;;
8887;SDS011;4480;52.370;9.748;2023-04-09T01:00:46;65.43;;;24.33;;
8887;SDS011;4480;52.370;9.748;2023-04-09T01:03:13;34.15;;;24.48;;
8887;SDS011;4480;52.370;9.748;2023-04-09T01:05:43;36.47;;;24.10;;
8887;SDS011;4480;52.370;9.748;2023-04-09T01:08:21;33.53;;;22.75;;
8887;SDS011;4480;52.370;9.748;2023-04-09T01:10:58;38.25;;;23.38;;
8887;SDS011;4480;52.370;9.748;2023-04-09T01:13:34;38.05;;;23.98;;
8887;SDS011;4480;52.370;9.748;2023-04-09T01:16:07;32.33;;;21.98;;
8887;SDS011;4480;52.370;9.748;2023-04-09T01:18:38;33.95;;;21.63;;
8887;SDS011;4480;52.370;9.748;2023-04-09T01:21:08;35.58;;;21.98;;
8887;SDS011;4480;52.370;9.748;2023-04-09T01:23:42;35.85;;;23.70;;
8887;SDS011;4480;52.370;9.748;2023-04-09T01:26:15;32.53;;;21.55;;
8887;SDS011;4480;52.370;9.748;2023-04-09T01:28:48;36.65;;;21.73;;
8887;SDS011;4480;52.370;9.748;2023-04-09T01:31:19;38.50;;;23.15;;
8887;SDS011;4480;52.370;9.748;2023-04-09T01:33:50;32.72;;;23.23;;
8887;SDS011;4480;52.370;9.748;2023-04-09T01:36:17;37.22;;;24.15;;
8887;SDS011;4480;52.370;9.748;2023-04-09T01:38:45;34.83;;;23.60;;
8887;SDS011;4480;52.370;9.748;2023-04-09T01:41:17;29.60;;;19.67;;
8887;SDS011;4480;52.370;9.748;2023-04-09T01:43:48;33.10;;;20.98;;
8887;SDS011;4480;52.370;9.748;2023-04-09T01:46:17;33.22;;;22.45;;
8887;SDS011;4480;52.370;9.748;2023-04-09T01:48:44;33.88;;;23.98;;
8887;SDS011;4480;52.370;9.748;2023-04-09T01:51:11;33.72;;;24.17;;
8887;SDS011;4480;52.370;9.748;2023-04-09T01:53:38;35.05;;;22.42;;
8887;SDS011;4480;52.370;9.748;2023-04-09T01:56:06;35.00;;;22.77;;
8887;SDS011;4480;52.370;9.748;2023-04-09T01:58:33;30.83;;;22.30;;
8887;SDS011;4480;52.370;9.748;2023-04-09T02:01:03;38.58;;;24.13;;
8887;SDS011;4480;52.370;9.748;2023-04-09T02:03:32;34.35;;;23.33;;
8887;SDS011;4480;52.370;9.748;2023-04-09T02:06:05;39.15;;;24.50;;
8887;SDS011;4480;52.370;9.748;2023-04-09T02:08:38;46.72;;;25.73;;
8887;SDS011;4480;52.370;9.748;2023-04-09T02:11:09;33.78;;;24.25;;
8887;SDS011;4480;52.370;9.748;2023-04-09T02:13:36;33.90;;;23.55;;
8887;SDS011;4480;52.370;9.748;2023-04-09T02:16:07;39.88;;;23.58;;
8887;SDS011;4480;52.370;9.748;2023-04-09T02:18:36;95.68;;;26.85;;
8887;SDS011;4480;52.370;9.748;2023-04-09T02:21:03;78.93;;;27.40;;
8887;SDS011;4480;52.370;9.748;2023-04-09T02:23:30;65.40;;;26.63;;
8887;SDS011;4480;52.370;9.748;2023-04-09T02:25:57;54.17;;;26.00;;
8887;SDS011;4480;52.370;9.748;2023-04-09T02:28:24;58.05;;;25.52;;
8887;SDS011;4480;52.370;9.748;2023-04-09T02:30:51;69.82;;;27.45;;
8887;SDS011;4480;52.370;9.748;2023-04-09T02:33:19;53.08;;;24.98;;
8887;SDS011;4480;52.370;9.748;2023-04-09T02:35:46;39.33;;;24.42;;
8887;SDS011;4480;52.370;9.748;2023-04-09T02:38:13;45.47;;;25.38;;
8887;SDS011;4480;52.370;9.748;2023-04-09T02:40:40;39.50;;;26.17;;
8887;SDS011;4480;52.370;9.748;2023-04-09T02:43:07;41.70;;;25.60;;
8887;SDS011;4480;52.370;9.748;2023-04-09T02:45:34;39.67;;;25.08;;
8887;SDS011;4480;52.370;9.748;2023-04-09T02:48:01;32.63;;;23.20;;
8887;SDS011;4480;52.370;9.748;2023-04-09T02:50:29;41.17;;;26.02;;
8887;SDS011;4480;52.370;9.748;2023-04-09T02:52:56;34.80;;;23.75;;
8887;SDS011;4480;52.370;9.748;2023-04-09T02:55:22;41.97;;;23.35;;
8887;SDS011;4480;52.370;9.748;2023-04-09T02:57:49;92.80;;;26.38;;
8887;SDS011;4480;52.370;9.748;2023-04-09T03:00:16;50.50;;;22.00;;
8887;SDS011;4480;52.370;9.748;2023-04-09T03:02:43;64.57;;;22.83;;
8887;SDS011;4480;52.370;9.748;2023-04-09T03:05:10;45.13;;;24.15;;
8887;SDS011;4480;52.370;9.748;2023-04-09T03:07:38;50.95;;;24.33;;
8887;SDS011;4480;52.370;9.748;2023-04-09T03:10:05;45.30;;;23.42;;
8887;SDS011;4480;52.370;9.748;2023-04-09T03:12:32;44.88;;;23.42;;
8887;SDS011;4480;52.370;9.748;2023-04-09T03:14:59;49.75;;;27.15;;
8887;SDS011;4480;52.370;9.748;2023-04-09T03:17:25;36.92;;;21.98;;
8887;SDS011;4480;52.370;9.748;2023-04-09T03:19:53;58.25;;;22.95;;
8887;SDS011;4480;52.370;9.748;2023-04-09T03:22:20;77.93;;;24.67;;
8887;SDS011;4480;52.370;9.748;2023-04-09T03:24:48;78.47;;;25.00;;
8887;SDS011;4480;52.370;9.748;2023-04-09T03:27:15;74.05;;;23.83;;
8887;SDS011;4480;52.370;9.748;2023-04-09T03:29:41;98.57;;;25.35;;
8887;SDS011;4480;52.370;9.748;2023-04-09T03:32:08;40.28;;;22.98;;
8887;SDS011;4480;52.370;9.748;2023-04-09T03:34:35;48.53;;;23.75;;
8887;SDS011;4480;52.370;9.748;2023-04-09T03:37:02;44.95;;;22.10;;
8887;SDS011;4480;52.370;9.748;2023-04-09T03:39:28;44.65;;;21.80;;
8887;SDS011;4480;52.370;9.748;2023-04-09T03:41:57;55.03;;;23.00;;
8887;SDS011;4480;52.370;9.748;2023-04-09T03:44:24;45.35;;;21.77;;
8887;SDS011;4480;52.370;9.748;2023-04-09T03:46:50;43.53;;;24.00;;
8887;SDS011;4480;52.370;9.748;2023-04-09T03:49:17;89.53;;;26.13;;
8887;SDS011;4480;52.370;9.748;2023-04-09T03:51:44;38.90;;;24.42;;
8887;SDS011;4480;52.370;9.748;2023-04-09T03:54:11;68.90;;;24.80;;
8887;SDS011;4480;52.370;9.748;2023-04-09T03:56:37;43.95;;;22.30;;
8887;SDS011;4480;52.370;9.748;2023-04-09T03:59:06;37.47;;;21.35;;
8887;SDS011;4480;52.370;9.748;2023-04-09T04:01:33;59.85;;;23.00;;
8887;SDS011;4480;52.370;9.748;2023-04-09T04:03:59;54.78;;;23.65;;
8887;SDS011;4480;52.370;9.748;2023-04-09T04:06:26;52.47;;;24.92;;
8887;SDS011;4480;52.370;9.748;2023-04-09T04:11:30;58.92;;;25.92;;
8887;SDS011;4480;52.370;9.748;2023-04-09T04:13:57;56.00;;;24.17;;
8887;SDS011;4480;52.370;9.748;2023-04-09T04:16:23;107.97;;;24.88;;
8887;SDS011;4480;52.370;9.748;2023-04-09T04:18:50;117.47;;;25.13;;
8887;SDS011;4480;52.370;9.748;2023-04-09T04:21:17;88.97;;;24.20;;
8887;SDS011;4480;52.370;9.748;2023-04-09T04:23:44;44.28;;;25.52;;
8887;SDS011;4480;52.370;9.748;2023-04-09T04:26:10;67.82;;;24.33;;
8887;SDS011;4480;52.370;9.748;2023-04-09T04:28:39;57.67;;;26.23;;
8887;SDS011;4480;52.370;9.748;2023-04-09T04:31:06;81.78;;;25.23;;
8887;SDS011;4480;52.370;9.748;2023-04-09T04:33:34;72.28;;;25.70;;
8887;SDS011;4480;52.370;9.748;2023-04-09T04:36:05;50.17;;;24.05;;
8887;SDS011;4480;52.370;9.748;2023-04-09T04:38:32;68.63;;;25.38;;
8887;SDS011;4480;52.370;9.748;2023-04-09T04:40:59;76.00;;;27.00;;
8887;SDS011;4480;52.370;9.748;2023-04-09T04:43:26;62.55;;;25.08;;
8887;SDS011;4480;52.370;9.748;2023-04-09T04:45:55;65.10;;;23.95;;
8887;SDS011;4480;52.370;9.748;2023-04-09T04:48:21;52.92;;;25.15;;
8887;SDS011;4480;52.370;9.748;2023-04-09T04:50:53;38.38;;;21.85;;
8887;SDS011;4480;52.370;9.748;2023-04-09T04:53:21;60.72;;;24.45;;
8887;SDS011;4480;52.370;9.748;2023-04-09T04:55:47;81.07;;;25.05;;
8887;SDS011;4480;52.370;9.748;2023-04-09T04:58:14;81.60;;;24.70;;
8887;SDS011;4480;52.370;9.748;2023-04-09T05:00:41;77.10;;;24.38;;
8887;SDS011;4480;52.370;9.748;2023-04-09T05:03:09;47.10;;;23.45;;
8887;SDS011;4480;52.370;9.748;2023-04-09T05:05:36;65.00;;;25.83;;
8887;SDS011;4480;52.370;9.748;2023-04-09T05:08:03;46.20;;;24.02;;
8887;SDS011;4480;52.370;9.748;2023-04-09T05:10:31;50.92;;;26.80;;
8887;SDS011;4480;52.370;9.748;2023-04-09T05:12:57;83.10;;;26.55;;
8887;SDS011;4480;52.370;9.748;2023-04-09T05:15:24;67.97;;;24.63;;
8887;SDS011;4480;52.370;9.748;2023-04-09T05:17:51;35.13;;;21.40;;
8887;SDS011;4480;52.370;9.748;2023-04-09T05:20:19;50.25;;;26.52;;
8887;SDS011;4480;52.370;9.748;2023-04-09T05:22:46;47.97;;;24.38;;
8887;SDS011;4480;52.370;9.748;2023-04-09T05:25:13;60.17;;;23.73;;
8887;SDS011;4480;52.370;9.748;2023-04-09T05:27:41;52.17;;;25.02;;
8887;SDS011;4480;52.370;9.748;2023-04-09T05:30:08;51.30;;;25.05;;
8887;SDS011;4480;52.370;9.748;2023-04-09T05:32:35;58.53;;;25.45;;
8887;SDS011;4480;52.370;9.748;2023-04-09T05:35:02;42.85;;;24.55;;
8887;SDS011;4480;52.370;9.748;2023-04-09T05:37:31;48.70;;;23.73;;
8887;SDS011;4480;52.370;9.748;2023-04-09T05:39:57;53.65;;;25.55;;
8887;SDS011;4480;52.370;9.748;2023-04-09T05:42:24;50.83;;;24.27;;
8887;SDS011;4480;52.370;9.748;2023-04-09T05:44:51;46.75;;;22.80;;
8887;SDS011;4480;52.370;9.748;2023-04-09T05:47:18;35.47;;;22.83;;
8887;SDS011;4480;52.370;9.748;2023-04-09T05:49:45;49.50;;;23.45;;
8887;SDS011;4480;52.370;9.748;2023-04-09T05:52:13;35.80;;;23.23;;
8887;SDS011;4480;52.370;9.748;2023-04-09T05:54:41;35.42;;;22.23;;
8887;SDS011;4480;52.370;9.748;2023-04-09T05:57:08;38.15;;;21.05;;
8887;SDS011;4480;52.370;9.748;2023-04-09T05:59:35;37.35;;;20.77;;
8887;SDS011;4480;52.370;9.748;2023-04-09T06:02:02;26.85;;;18.67;;
8887;SDS011;4480;52.370;9.748;2023-04-09T06:04:28;33.58;;;20.42;;
8887;SDS011;4480;52.370;9.748;2023-04-09T06:06:55;39.30;;;19.08;;
8887;SDS011;4480;52.370;9.748;2023-04-09T06:09:24;34.92;;;19.98;;
8887;SDS011;4480;52.370;9.748;2023-04-09T06:11:52;30.90;;;18.42;;
8887;SDS011;4480;52.370;9.748;2023-04-09T06:14:19;34.38;;;19.17;;
8887;SDS011;4480;52.370;9.748;2023-04-09T06:16:46;26.38;;;18.35;;
8887;SDS011;4480;52.370;9.748;2023-04-09T06:19:14;33.88;;;20.30;;
8887;SDS011;4480;52.370;9.748;2023-04-09T06:21:41;30.20;;;19.65;;
8887;SDS011;4480;52.370;9.748;2023-04-09T06:24:08;27.30;;;19.17;;
8887;SDS011;4480;52.370;9.748;2023-04-09T06:26:35;27.00;;;17.50;;
8887;SDS011;4480;52.370;9.748;2023-04-09T06:29:03;30.95;;;19.50;;
8887;SDS011;4480;52.370;9.748;2023-04-09T06:31:30;34.40;;;20.25;;
8887;SDS011;4480;52.370;9.748;2023-04-09T06:33:57;26.92;;;18.70;;
8887;SDS011;4480;52.370;9.748;2023-04-09T06:36:24;29.13;;;19.23;;
8887;SDS011;4480;52.370;9.748;2023-04-09T06:38:51;30.80;;;19.67;;
8887;SDS011;4480;52.370;9.748;2023-04-09T06:41:19;29.48;;;18.20;;
8887;SDS011;4480;52.370;9.748;2023-04-09T06:43:46;28.38;;;17.85;;
8887;SDS011;4480;52.370;9.748;2023-04-09T06:46:14;23.70;;;17.95;;
8887;SDS011;4480;52.370;9.748;2023-04-09T06:48:44;26.80;;;18.05;;
8887;SDS011;4480;52.370;9.748;2023-04-09T06:51:11;27.02;;;16.40;;
8887;SDS011;4480;52.370;9.748;2023-04-09T06:53:38;29.73;;;18.83;;
8887;SDS011;4480;52.370;9.748;2023-04-09T06:56:05;29.83;;;17.38;;
8887;SDS011;4480;52.370;9.748;2023-04-09T06:58:32;28.73;;;16.80;;
8887;SDS011;4480;52.370;9.748;2023-04-09T07:00:59;27.42;;;17.60;;
8887;SDS011;4480;52.370;9.748;2023-04-09T07:03:27;33.50;;;19.23;;
8887;SDS011;4480;52.370;9.748;2023-04-09T07:05:54;23.52;;;16.50;;
8887;SDS011;4480;52.370;9.748;2023-04-09T07:08:21;28.58;;;16.90;;
8887;SDS011;4480;52.370;9.748;2023-04-09T07:10:48;29.02;;;18.30;;
8887;SDS011;4480;52.370;9.748;2023-04-09T07:13:15;26.38;;;16.60;;
8887;SDS011;4480;52.370;9.748;2023-04-09T07:15:42;23.80;;;16.83;;
8887;SDS011;4480;52.370;9.748;2023-04-09T07:18:09;28.42;;;18.40;;
8887;SDS011;4480;52.370;9.748;2023-04-09T07:20:37;37.33;;;21.88;;
8887;SDS011;4480;52.370;9.748;2023-04-09T07:23:04;30.85;;;21.50;;
8887;SDS011;4480;52.370;9.748;2023-04-09T07:25:31;37.90;;;21.38;;
8887;SDS011;4480;52.370;9.748;2023-04-09T07:27:58;31.85;;;21.35;;
8887;SDS011;4480;52.370;9.748;2023-04-09T07:30:25;41.50;;;21.83;;
8887;SDS011;4480;52.370;9.748;2023-04-09T07:32:51;35.17;;;20.55;;
8887;SDS011;4480;52.370;9.748;2023-04-09T07:35:19;37.55;;;23.85;;
8887;SDS011;4480;52.370;9.748;2023-04-09T07:37:47;42.15;;;22.60;;
8887;SDS011;4480;52.370;9.748;2023-04-09T07:40:14;42.28;;;23.80;;
8887;SDS011;4480;52.370;9.748;2023-04-09T07:42:41;35.63;;;23.55;;
8887;SDS011;4480;52.370;9.748;2023-04-09T07:45:08;35.70;;;22.92;;
8887;SDS011;4480;52.370;9.748;2023-04-09T07:47:35;34.05;;;22.88;;
8887;SDS011;4480;52.370;9.748;2023-04-09T07:50:03;38.85;;;24.08;;
8887;SDS011;4480;52.370;9.748;2023-04-09T07:52:31;36.85;;;23.63;;
8887;SDS011;4480;52.370;9.748;2023-04-09T07:54:59;44.25;;;25.08;;
8887;SDS011;4480;52.370;9.748;2023-04-09T07:57:26;42.17;;;24.73;;
8887;SDS011;4480;52.370;9.748;2023-04-09T07:59:53;37.58;;;21.75;;
8887;SDS011;4480;52.370;9.748;2023-04-09T08:02:20;37.85;;;24.90;;
8887;SDS011;4480;52.370;9.748;2023-04-09T08:04:47;38.60;;;25.30;;
8887;SDS011;4480;52.370;9.748;2023-04-09T08:07:14;36.83;;;22.63;;
8887;SDS011;4480;52.370;9.748;2023-04-09T08:09:41;35.53;;;24.33;;
8887;SDS011;4480;52.370;9.748;2023-04-09T08:12:09;36.33;;;24.55;;
8887;SDS011;4480;52.370;9.748;2023-04-09T08:14:36;39.08;;;23.45;;
8887;SDS011;4480;52.370;9.748;2023-04-09T08:17:03;36.35;;;22.08;;
8887;SDS011;4480;52.370;9.748;2023-04-09T08:19:30;33.28;;;22.15;;
8887;SDS011;4480;52.370;9.748;2023-04-09T08:21:57;28.55;;;19.15;;
8887;SDS011;4480;52.370;9.748;2023-04-09T08:24:23;29.70;;;19.25;;
8887;SDS011;4480;52.370;9.748;2023-04-09T08:26:50;25.27;;;17.73;;
8887;SDS011;4480;52.370;9.748;2023-04-09T08:29:19;26.02;;;17.58;;
8887;SDS011;4480;52.370;9.748;2023-04-09T08:31:46;24.42;;;18.08;;
8887;SDS011;4480;52.370;9.748;2023-04-09T08:34:13;27.35;;;19.40;;
8887;SDS011;4480;52.370;9.748;2023-04-09T08:36:43;24.90;;;17.40;;
8887;SDS011;4480;52.370;9.748;2023-04-09T08:39:11;27.33;;;19.77;;
8887;SDS011;4480;52.370;9.748;2023-04-09T08:41:38;24.67;;;17.90;;
8887;SDS011;4480;52.370;9.748;2023-04-09T08:44:08;26.23;;;17.70;;
8887;SDS011;4480;52.370;9.748;2023-04-09T08:46:36;26.40;;;16.87;;
8887;SDS011;4480;52.370;9.748;2023-04-09T08:49:03;26.80;;;18.75;;
8887;SDS011;4480;52.370;9.748;2023-04-09T08:51:30;26.35;;;18.08;;
8887;SDS011;4480;52.370;9.748;2023-04-09T08:53:57;30.08;;;18.85;;
8887;SDS011;4480;52.370;9.748;2023-04-09T08:56:25;24.80;;;17.97;;
8887;SDS011;4480;52.370;9.748;2023-04-09T08:58:53;25.73;;;20.30;;
8887;SDS011;4480;52.370;9.748;2023-04-09T09:01:21;29.75;;;19.60;;
8887;SDS011;4480;52.370;9.748;2023-04-09T09:03:53;32.50;;;20.27;;
8887;SDS011;4480;52.370;9.748;2023-04-09T09:06:22;30.10;;;21.20;;
8887;SDS011;4480;52.370;9.748;2023-04-09T09:08:58;30.20;;;21.90;;
8887;SDS011;4480;52.370;9.748;2023-04-09T09:11:26;32.40;;;22.37;;
8887;SDS011;4480;52.370;9.748;2023-04-09T09:13:57;36.80;;;24.83;;
8887;SDS011;4480;52.370;9.748;2023-04-09T09:16:25;39.83;;;23.83;;
8887;SDS011;4480;52.370;9.748;2023-04-09T09:18:53;41.77;;;24.83;;
8887;SDS011;4480;52.370;9.748;2023-04-09T09:21:21;35.80;;;23.83;;
8887;SDS011;4480;52.370;9.748;2023-04-09T09:23:48;35.73;;;24.97;;
8887;SDS011;4480;52.370;9.748;2023-04-09T09:26:16;30.27;;;21.73;;
8887;SDS011;4480;52.370;9.748;2023-04-09T09:28:44;34.53;;;22.80;;
8887;SDS011;4480;52.370;9.748;2023-04-09T09:31:12;37.97;;;24.07;;
8887;SDS011;4480;52.370;9.748;2023-04-09T09:33:40;35.93;;;25.13;;
8887;SDS011;4480;52.370;9.748;2023-04-09T09:36:08;39.40;;;27.30;;
8887;SDS011;4480;52.370;9.748;2023-04-09T09:38:50;38.20;;;27.80;;
8887;SDS011;4480;52.370;9.748;2023-04-09T09:41:18;41.63;;;26.37;;
8887;SDS011;4480;52.370;9.748;2023-04-09T09:43:45;36.77;;;27.57;;
8887;SDS011;4480;52.370;9.748;2023-04-09T09:46:12;41.33;;;29.37;;
8887;SDS011;4480;52.370;9.748;2023-04-09T09:48:39;38.67;;;29.37;;
8887;SDS011;4480;52.370;9.748;2023-04-09T09:51:09;39.73;;;29.43;;
8887;SDS011;4480;52.370;9.748;2023-04-09T09:53:37;40.00;;;27.90;;
8887;SDS011;4480;52.370;9.748;2023-04-09T09:56:05;35.37;;;25.97;;
8887;SDS011;4480;52.370;9.748;2023-04-09T09:58:39;36.30;;;27.70;;
8887;SDS011;4480;52.370;9.748;2023-04-09T10:01:11;44.27;;;29.07;;
8887;SDS011;4480;52.370;9.748;2023-04-09T10:03:39;45.63;;;29.87;;
8887;SDS011;4480;52.370;9.748;2023-04-09T10:06:08;43.47;;;30.07;;
8887;SDS011;4480;52.370;9.748;2023-04-09T10:08:36;39.30;;;29.57;;
8887;SDS011;4480;52.370;9.748;2023-04-09T10:11:05;49.40;;;32.10;;
8887;SDS011;4480;52.370;9.748;2023-04-09T10:13:33;42.57;;;31.10;;
8887;SDS011;4480;52.370;9.748;2023-04-09T10:16:02;44.07;;;32.00;;
8887;SDS011;4480;52.370;9.748;2023-04-09T10:18:31;42.30;;;30.57;;
8887;SDS011;4480;52.370;9.748;2023-04-09T10:21:00;43.07;;;30.90;;
8887;SDS011;4480;52.370;9.748;2023-04-09T10:23:37;42.37;;;30.33;;
8887;SDS011;4480;52.370;9.748;2023-04-09T10:26:05;41.00;;;29.90;;
8887;SDS011;4480;52.370;9.748;2023-04-09T10:28:33;39.20;;;29.40;;
8887;SDS011;4480;52.370;9.748;2023-04-09T10:31:02;44.97;;;31.00;;
8887;SDS011;4480;52.370;9.748;2023-04-09T10:33:30;43.50;;;31.40;;
8887;SDS011;4480;52.370;9.748;2023-04-09T10:35:58;44.23;;;28.80;;
8887;SDS011;4480;52.370;9.748;2023-04-09T10:38:33;38.40;;;27.20;;
8887;SDS011;4480;52.370;9.748;2023-04-09T10:41:11;38.87;;;26.60;;
8887;SDS011;4480;52.370;9.748;2023-04-09T10:43:41;33.63;;;25.30;;
8887;SDS011;4480;52.370;9.748;2023-04-09T10:51:33;34.30;;;22.70;;
8887;SDS011;4480;52.370;9.748;2023-04-09T10:54:02;28.70;;;21.30;;
8887;SDS011;4480;52.370;9.748;2023-04-09T10:56:31;29.13;;;20.73;;
8887;SDS011;4480;52.370;9.748;2023-04-09T10:58:58;32.57;;;23.00;;
8887;SDS011;4480;52.370;9.748;2023-04-09T11:01:25;27.33;;;21.10;;
8887;SDS011;4480;52.370;9.748;2023-04-09T11:04:06;28.87;;;19.23;;
8887;SDS011;4480;52.370;9.748;2023-04-09T11:06:34;30.13;;;20.63;;
8887;SDS011;4480;52.370;9.748;2023-04-09T11:09:02;27.77;;;19.07;;
8887;SDS011;4480;52.370;9.748;2023-04-09T11:11:30;23.03;;;17.50;;
8887;SDS011;4480;52.370;9.748;2023-04-09T11:13:59;27.20;;;18.17;;
8887;SDS011;4480;52.370;9.748;2023-04-09T11:16:27;24.27;;;17.90;;
8887;SDS011;4480;52.370;9.748;2023-04-09T11:18:55;28.27;;;17.60;;
8887;SDS011;4480;52.370;9.748;2023-04-09T11:21:25;26.73;;;16.53;;
8887;SDS011;4480;52.370;9.748;2023-04-09T11:23:53;26.23;;;18.87;;
8887;SDS011;4480;52.370;9.748;2023-04-09T11:26:23;32.63;;;19.87;;
8887;SDS011;4480;52.370;9.748;2023-04-09T11:28:55;29.00;;;18.43;;
8887;SDS011;4480;52.370;9.748;2023-04-09T11:31:25;29.97;;;18.83;;
8887;SDS011;4480;52.370;9.748;2023-04-09T11:33:53;25.97;;;18.17;;
8887;SDS011;4480;52.370;9.748;2023-04-09T11:36:20;23.17;;;15.97;;
8887;SDS011;4480;52.370;9.748;2023-04-09T11:38:47;30.07;;;20.47;;
8887;SDS011;4480;52.370;9.748;2023-04-09T11:41:14;26.33;;;18.00;;
8887;SDS011;4480;52.370;9.748;2023-04-09T11:43:41;28.13;;;19.97;;
8887;SDS011;4480;52.370;9.748;2023-04-09T11:46:10;27.07;;;18.57;;
8887;SDS011;4480;52.370;9.748;2023-04-09T11:48:37;25.90;;;19.40;;
8887;SDS011;4480;52.370;9.748;2023-04-09T11:51:04;24.20;;;19.03;;
8887;SDS011;4480;52.370;9.748;2023-04-09T11:53:31;28.80;;;18.90;;
8887;SDS011;4480;52.370;9.748;2023-04-09T11:55:58;26.73;;;19.43;;
8887;SDS011;4480;52.370;9.748;2023-04-09T11:58:26;29.27;;;19.40;;
8887;SDS011;4480;52.370;9.748;2023-04-09T12:00:53;26.67;;;16.90;;
8887;SDS011;4480;52.370;9.748;2023-04-09T12:03:27;27.57;;;18.17;;
8887;SDS011;4480;52.370;9.748;2023-04-09T12:05:56;26.07;;;16.87;;
8887;SDS011;4480;52.370;9.748;2023-04-09T12:08:26;26.43;;;17.40;;
8887;SDS011;4480;52.370;9.748;2023-04-09T12:10:53;25.27;;;18.30;;
8887;SDS011;4480;52.370;9.748;2023-04-09T12:13:20;26.40;;;17.63;;
8887;SDS011;4480;52.370;9.748;2023-04-09T12:15:47;26.67;;;18.33;;
8887;SDS011;4480;52.370;9.748;2023-04-09T12:18:14;24.97;;;16.83;;
8887;SDS011;4480;52.370;9.748;2023-04-09T12:20:43;22.77;;;15.83;;
8887;SDS011;4480;52.370;9.748;2023-04-09T12:23:14;26.00;;;17.87;;
8887;SDS011;4480;52.370;9.748;2023-04-09T12:25:42;22.50;;;16.83;;
8887;SDS011;4480;52.370;9.748;2023-04-09T12:28:12;24.53;;;16.80;;
8887;SDS011;4480;52.370;9.748;2023-04-09T12:30:42;25.47;;;18.30;;
8887;SDS011;4480;52.370;9.748;2023-04-09T12:33:09;26.20;;;18.93;;
8887;SDS011;4480;52.370;9.748;2023-04-09T12:35:36;23.23;;;17.80;;
8887;SDS011;4480;52.370;9.748;2023-04-09T12:38:04;27.97;;;18.57;;
8887;SDS011;4480;52.370;9.748;2023-04-09T12:40:31;28.13;;;18.70;;
8887;SDS011;4480;52.370;9.748;2023-04-09T12:42:58;25.73;;;19.57;;
8887;SDS011;4480;52.370;9.748;2023-04-09T12:45:25;25.87;;;18.03;;
8887;SDS011;4480;52.370;9.748;2023-04-09T12:47:52;26.07;;;19.43;;
8887;SDS011;4480;52.370;9.748;2023-04-09T12:50:19;26.70;;;19.47;;
8887;SDS011;4480;52.370;9.748;2023-04-09T12:52:46;24.27;;;18.47;;
8887;SDS011;4480;52.370;9.748;2023-04-09T12:55:14;25.27;;;19.33;;
8887;SDS011;4480;52.370;9.748;2023-04-09T12:57:42;24.77;;;18.13;;
8887;SDS011;4480;52.370;9.748;2023-04-09T13:00:10;24.97;;;19.50;;
8887;SDS011;4480;52.370;9.748;2023-04-09T13:02:38;24.13;;;18.30;;
8887;SDS011;4480;52.370;9.748;2023-04-09T13:05:04;21.70;;;18.87;;
8887;SDS011;4480;52.370;9.748;2023-04-09T13:07:31;24.87;;;19.73;;
8887;SDS011;4480;52.370;9.748;2023-04-09T13:09:58;22.60;;;17.70;;
8887;SDS011;4480;52.370;9.748;2023-04-09T13:12:26;25.53;;;20.77;;
8887;SDS011;4480;52.370;9.748;2023-04-09T13:14:54;25.97;;;20.33;;
8887;SDS011;4480;52.370;9.748;2023-04-09T13:17:21;28.07;;;21.73;;
8887;SDS011;4480;52.370;9.748;2023-04-09T13:19:48;24.93;;;19.77;;
8887;SDS011;4480;52.370;9.748;2023-04-09T13:22:15;25.60;;;19.10;;
8887;SDS011;4480;52.370;9.748;2023-04-09T13:24:42;26.90;;;21.00;;
8887;SDS011;4480;52.370;9.748;2023-04-09T13:27:09;25.60;;;20.20;;
8887;SDS011;4480;52.370;9.748;2023-04-09T13:29:37;24.60;;;18.33;;
8887;SDS011;4480;52.370;9.748;2023-04-09T13:32:05;27.50;;;20.43;;
8887;SDS011;4480;52.370;9.748;2023-04-09T13:34:32;27.47;;;21.07;;
8887;SDS011;4480;52.370;9.748;2023-04-09T13:36:59;23.87;;;19.73;;
8887;SDS011;4480;52.370;9.748;2023-04-09T13:39:26;24.20;;;19.40;;
8887;SDS011;4480;52.370;9.748;2023-04-09T13:41:53;25.60;;;19.97;;
8887;SDS011;4480;52.370;9.748;2023-04-09T13:44:20;25.77;;;19.87;;
8887;SDS011;4480;52.370;9.748;2023-04-09T13:46:49;26.30;;;20.23;;
8887;SDS011;4480;52.370;9.748;2023-04-09T13:49:15;28.07;;;20.63;;
8887;SDS011;4480;52.370;9.748;2023-04-09T13:51:42;24.43;;;16.70;;
8887;SDS011;4480;52.370;9.748;2023-04-09T13:54:09;20.63;;;16.00;;
8887;SDS011;4480;52.370;9.748;2023-04-09T13:56:36;22.53;;;17.43;;
8887;SDS011;4480;52.370;9.748;2023-04-09T13:59:03;22.37;;;17.63;;
8887;SDS011;4480;52.370;9.748;2023-04-09T14:01:30;19.33;;;14.10;;
8887;SDS011;4480;52.370;9.748;2023-04-09T14:03:58;17.33;;;12.80;;
8887;SDS011;4480;52.370;9.748;2023-04-09T14:06:25;18.40;;;14.87;;
8887;SDS011;4480;52.370;9.748;2023-04-09T14:08:52;20.43;;;14.37;;
8887;SDS011;4480;52.370;9.748;2023-04-09T14:11:19;22.17;;;15.60;;
8887;SDS011;4480;52.370;9.748;2023-04-09T14:13:46;23.30;;;15.77;;
8887;SDS011;4480;52.370;9.748;2023-04-09T14:16:12;19.60;;;14.97;;
8887;SDS011;4480;52.370;9.748;2023-04-09T14:18:39;21.63;;;15.77;;
8887;SDS011;4480;52.370;9.748;2023-04-09T14:21:07;19.53;;;15.07;;
8887;SDS011;4480;52.370;9.748;2023-04-09T14:23:34;20.63;;;15.93;;
8887;SDS011;4480;52.370;9.748;2023-04-09T14:26:01;28.97;;;16.03;;
8887;SDS011;4480;52.370;9.748;2023-04-09T14:28:29;20.60;;;15.67;;
8887;SDS011;4480;52.370;9.748;2023-04-09T14:30:56;18.87;;;15.10;;
8887;SDS011;4480;52.370;9.748;2023-04-09T14:33:23;19.00;;;15.40;;
8887;SDS011;4480;52.370;9.748;2023-04-09T14:35:50;19.73;;;15.10;;
8887;SDS011;4480;52.370;9.748;2023-04-09T14:38:18;20.20;;;14.87;;
8887;SDS011;4480;52.370;9.748;2023-04-09T14:40:45;16.97;;;14.30;;
8887;SDS011;4480;52.370;9.748;2023-04-09T14:43:12;20.53;;;15.87;;
8887;SDS011;4480;52.370;9.748;2023-04-09T14:45:39;19.40;;;14.27;;
8887;SDS011;4480;52.370;9.748;2023-04-09T14:48:05;18.63;;;13.90;;
8887;SDS011;4480;52.370;9.748;2023-04-09T14:50:33;14.47;;;12.53;;
8887;SDS011;4480;52.370;9.748;2023-04-09T14:53:00;18.13;;;13.90;;
8887;SDS011;4480;52.370;9.748;2023-04-09T14:55:29;17.27;;;14.27;;
8887;SDS011;4480;52.370;9.748;2023-04-09T14:57:55;19.33;;;13.70;;
8887;SDS011;4480;52.370;9.748;2023-04-09T15:00:23;18.27;;;14.30;;